Time;durP1;ratioP1;P1;durP2;ratioP2;P2;SDS_P1;SDS_P2;PMS_P1;PMS_P2;Temp;Humidity;BMP_temperature;BMP_pressure;BME280_temperature;BME280_humidity;BME280_pressure;Samples;Min_cycle;Max_cycle;Signal;HPM_P1;HPM_P2
2021/07/03 00:01:58;;;;;;;12.02;6.40;;;;;;;13.63;90.03;101794.53;5069913;28;20032;-57
2021/07/03 00:04:26;;;;;;;9.63;6.38;;;;;;;13.61;90.00;101789.22;5070596;28;20049;-56
2021/07/03 00:06:56;;;;;;;10.50;6.07;;;;;;;13.61;89.99;101792.03;5070533;28;20072;-57
2021/07/03 00:09:23;;;;;;;11.20;6.38;;;;;;;13.59;89.97;101785.88;5068497;28;20533;-56
2021/07/03 00:11:51;;;;;;;9.93;6.25;;;;;;;13.55;90.18;101782.00;5069451;28;20036;-57
2021/07/03 00:14:20;;;;;;;12.82;7.50;;;;;;;13.54;90.21;101790.72;5070307;28;20703;-52
2021/07/03 00:16:47;;;;;;;10.80;7.25;;;;;;;13.52;90.26;101791.00;5069857;28;20562;-54
2021/07/03 00:19:16;;;;;;;8.80;5.90;;;;;;;13.49;90.38;101782.34;5070224;28;20454;-56
2021/07/03 00:21:43;;;;;;;8.77;5.22;;;;;;;13.47;90.17;101779.84;5070229;28;20063;-53
2021/07/03 00:24:13;;;;;;;9.05;5.90;;;;;;;13.46;90.38;101789.38;5069539;28;20497;-53
2021/07/03 00:26:41;;;;;;;10.73;6.53;;;;;;;13.44;90.52;101789.69;5070187;28;20044;-57
2021/07/03 00:29:08;;;;;;;10.25;6.13;;;;;;;13.43;90.40;101792.78;5070373;28;20075;-54
2021/07/03 00:31:36;;;;;;;9.40;6.65;;;;;;;13.41;90.39;101801.47;5069421;28;20542;-57
2021/07/03 00:34:04;;;;;;;10.93;6.35;;;;;;;13.40;90.55;101793.38;5070124;28;20040;-56
2021/07/03 00:36:32;;;;;;;9.00;5.65;;;;;;;13.40;90.49;101794.19;5073135;28;20053;-53
2021/07/03 00:39:00;;;;;;;12.27;6.93;;;;;;;13.39;90.82;101792.53;5073040;28;20091;-54
2021/07/03 00:41:29;;;;;;;11.23;7.88;;;;;;;13.38;90.65;101785.28;5073831;28;20086;-56
2021/07/03 00:43:57;;;;;;;11.80;7.18;;;;;;;13.34;90.78;101789.78;5073567;28;20119;-55
2021/07/03 00:46:25;;;;;;;11.90;7.30;;;;;;;13.32;90.77;101797.66;5073287;28;20040;-55
2021/07/03 00:48:53;;;;;;;10.07;7.03;;;;;;;13.29;90.94;101798.25;5073454;28;20037;-52
2021/07/03 00:51:23;;;;;;;12.18;8.27;;;;;;;13.26;91.15;101790.41;5072860;28;20052;-58
2021/07/03 00:53:51;;;;;;;11.15;6.90;;;;;;;13.24;91.05;101789.88;5062253;28;20132;-53
2021/07/03 00:56:19;;;;;;;12.85;8.75;;;;;;;13.22;91.10;101786.53;5073428;28;20106;-55
2021/07/03 00:58:48;;;;;;;13.23;8.05;;;;;;;13.22;91.25;101791.28;5073040;28;20036;-58
2021/07/03 01:01:17;;;;;;;15.18;8.68;;;;;;;13.19;91.26;101795.53;5072171;28;20047;-50
2021/07/03 01:03:45;;;;;;;13.30;8.25;;;;;;;13.18;91.38;101784.63;5068649;28;20049;-56
2021/07/03 01:06:13;;;;;;;10.48;7.43;;;;;;;13.16;91.26;101793.34;5072798;28;20047;-56
2021/07/03 01:08:41;;;;;;;10.60;7.20;;;;;;;13.16;91.38;101787.72;5072670;28;20518;-56
2021/07/03 01:11:09;;;;;;;12.35;7.40;;;;;;;13.15;91.24;101790.78;5072087;28;20050;-58
2021/07/03 01:13:37;;;;;;;10.75;7.35;;;;;;;13.12;91.35;101792.22;5072735;28;20092;-54
2021/07/03 01:16:14;;;;;;;9.02;6.47;;;;;;;13.09;91.36;101790.00;5073283;28;20044;-55
2021/07/03 01:18:43;;;;;;;12.70;7.30;;;;;;;13.07;91.27;101790.28;5073138;28;20515;-55
2021/07/03 01:21:15;;;;;;;10.70;6.32;;;;;;;13.06;91.31;101779.34;5072292;28;20115;-58
2021/07/03 01:23:45;;;;;;;8.77;5.87;;;;;;;13.03;91.35;101782.75;5071881;28;20059;-55
2021/07/03 01:26:13;;;;;;;9.20;5.43;;;;;;;13.01;91.52;101782.19;5068801;28;20295;-54
2021/07/03 01:28:42;;;;;;;9.32;6.15;;;;;;;13.01;91.47;101785.00;5072074;28;20059;-55
2021/07/03 01:31:12;;;;;;;10.02;5.40;;;;;;;13.00;91.30;101783.31;5071422;28;20098;-54
2021/07/03 01:33:41;;;;;;;8.38;5.07;;;;;;;12.97;91.40;101783.94;5070753;28;20323;-56
2021/07/03 01:36:09;;;;;;;8.32;5.82;;;;;;;12.96;91.70;101793.47;5071073;28;20074;-57
2021/07/03 01:38:37;;;;;;;10.43;5.63;;;;;;;12.94;91.61;101784.53;5071319;28;20386;-53
2021/07/03 01:41:11;;;;;;;8.77;5.60;;;;;;;12.93;91.72;101782.84;5071004;28;20517;-56
2021/07/03 01:43:47;;;;;;;7.30;5.40;;;;;;;12.91;91.75;101782.28;5072543;28;20076;-56
2021/07/03 01:46:16;;;;;;;8.38;5.78;;;;;;;12.89;91.56;101770.53;5071049;28;20056;-57
2021/07/03 01:48:44;;;;;;;10.63;6.10;;;;;;;12.88;91.53;101769.72;5071943;28;20068;-55
2021/07/03 01:51:22;;;;;;;7.45;4.88;;;;;;;12.85;91.69;101778.69;5072418;28;20051;-52
2021/07/03 01:53:51;;;;;;;9.27;5.88;;;;;;;12.84;91.77;101765.81;5072254;28;20063;-58
2021/07/03 01:56:21;;;;;;;8.00;5.55;;;;;;;12.85;91.97;101773.09;5070166;28;20528;-57
2021/07/03 01:58:49;;;;;;;7.65;4.45;;;;;;;12.86;92.12;101771.13;5070828;28;20135;-59
2021/07/03 02:01:26;;;;;;;6.45;4.47;;;;;;;12.87;92.23;101767.19;5072219;28;20051;-58
2021/07/03 02:03:54;;;;;;;6.93;4.88;;;;;;;12.88;92.10;101761.31;5070680;28;20078;-57
2021/07/03 02:06:33;;;;;;;8.40;4.20;;;;;;;12.88;92.24;101758.50;5070551;28;20131;-57
2021/07/03 02:09:01;;;;;;;7.03;5.00;;;;;;;12.89;92.43;101754.56;5069988;28;20056;-59
2021/07/03 02:11:31;;;;;;;6.30;4.57;;;;;;;12.90;92.33;101756.25;5071797;28;20080;-54
2021/07/03 02:14:10;;;;;;;6.72;5.13;;;;;;;12.88;92.57;101763.28;5072038;28;20058;-56
2021/07/03 02:16:47;;;;;;;8.15;5.57;;;;;;;12.88;92.56;101760.47;5070233;28;20468;-54
2021/07/03 02:19:16;;;;;;;6.57;4.80;;;;;;;12.89;92.22;101760.19;5072572;28;20411;-55
2021/07/03 02:21:45;;;;;;;7.28;5.30;;;;;;;12.89;92.31;101753.75;5059010;28;20079;-55
2021/07/03 02:24:22;;;;;;;9.07;4.82;;;;;;;12.88;92.81;101755.69;5069915;28;20465;-52
2021/07/03 02:26:53;;;;;;;8.98;5.25;;;;;;;12.89;92.69;101751.78;5070296;28;20568;-55
2021/07/03 02:29:21;;;;;;;7.90;5.00;;;;;;;12.90;92.69;101753.44;5070118;28;20067;-56
2021/07/03 02:31:49;;;;;;;9.23;6.13;;;;;;;12.91;92.93;101760.72;5069746;28;20052;-53
2021/07/03 02:34:18;;;;;;;5.30;3.78;;;;;;;12.93;92.94;101752.88;5071384;28;20060;-54
2021/07/03 02:36:46;;;;;;;9.73;5.45;;;;;;;12.95;92.93;101755.38;5070995;28;20044;-54
2021/07/03 02:39:14;;;;;;;9.18;6.13;;;;;;;12.97;93.04;101755.91;5071735;28;20102;-56
2021/07/03 02:41:48;;;;;;;6.68;4.25;;;;;;;12.97;92.96;101748.34;5070188;28;20564;-57
2021/07/03 02:44:19;;;;;;;8.38;5.03;;;;;;;13.01;93.30;101752.22;5071046;28;20115;-58
2021/07/03 02:46:48;;;;;;;8.65;5.47;;;;;;;13.04;93.40;101745.19;5069905;28;20048;-56
2021/07/03 02:49:20;;;;;;;9.80;5.65;;;;;;;13.06;93.67;101746.56;5071552;28;20392;-57
2021/07/03 02:51:49;;;;;;;8.50;5.95;;;;;;;13.10;93.99;101738.41;5069474;28;20052;-57
2021/07/03 02:54:17;;;;;;;7.82;4.90;;;;;;;13.14;94.10;101733.91;5071171;28;20409;-57
2021/07/03 02:56:45;;;;;;;10.43;6.95;;;;;;;13.18;94.36;101734.19;5070983;28;20046;-58
2021/07/03 02:59:13;;;;;;;12.18;7.45;;;;;;;13.20;94.49;101729.94;5070087;28;20047;-60
2021/07/03 03:01:44;;;;;;;11.48;6.55;;;;;;;13.22;94.83;101736.06;5064884;28;20044;-53
2021/07/03 03:04:12;;;;;;;9.48;6.47;;;;;;;13.24;95.00;101722.59;5071066;28;20444;-56
2021/07/03 03:06:39;;;;;;;10.55;6.78;;;;;;;13.28;95.03;101731.25;5069070;28;20098;-54
2021/07/03 03:09:07;;;;;;;10.57;6.85;;;;;;;13.32;95.43;101735.16;5069356;28;20093;-56
2021/07/03 03:11:36;;;;;;;9.95;7.07;;;;;;;13.35;95.57;101729.78;5070757;28;20396;-56
2021/07/03 03:14:04;;;;;;;11.45;6.82;;;;;;;13.39;96.03;101727.22;5069232;28;20474;-54
2021/07/03 03:16:33;;;;;;;12.45;7.25;;;;;;;13.43;96.16;101731.09;5069502;28;20041;-56
2021/07/03 03:19:07;;;;;;;;;;;;;;;13.38;96.48;101729.22;5070924;28;20044;-54
2021/07/03 03:21:36;;;;;;;9.23;6.25;;;;;;;13.39;96.96;101733.66;5069691;28;19928;-56
2021/07/03 03:24:05;;;;;;;10.50;6.68;;;;;;;13.50;96.87;101730.75;5069447;28;20063;-56
2021/07/03 03:26:35;;;;;;;12.52;7.05;;;;;;;13.55;96.82;101722.28;5069410;28;20106;-56
2021/07/03 03:29:05;;;;;;;10.82;6.55;;;;;;;13.61;97.24;101729.47;5058753;28;20098;-58
2021/07/03 03:31:33;;;;;;;12.23;6.72;;;;;;;13.65;96.90;101727.75;5070953;28;20086;-58
2021/07/03 03:34:04;;;;;;;8.30;5.30;;;;;;;13.70;97.26;101724.91;5070324;28;20451;-55
2021/07/03 03:36:33;;;;;;;12.68;7.07;;;;;;;13.71;97.39;101719.00;5059698;28;20062;-58
2021/07/03 03:39:03;;;;;;;9.32;5.72;;;;;;;13.75;97.45;101711.66;5070545;28;20040;-53
2021/07/03 03:41:32;;;;;;;8.90;6.15;;;;;;;13.79;97.48;101709.91;5068869;28;20055;-59
2021/07/03 03:44:05;;;;;;;10.02;6.57;;;;;;;13.83;97.61;101712.09;5069551;28;20049;-55
2021/07/03 03:46:34;;;;;;;12.55;6.93;;;;;;;13.85;97.76;101704.22;5070887;28;20140;-54
2021/07/03 03:49:02;;;;;;;10.30;6.80;;;;;;;13.88;97.94;101703.63;5068557;28;20106;-55
2021/07/03 03:51:31;;;;;;;13.10;7.30;;;;;;;13.92;98.00;101705.53;5070680;28;20041;-56
2021/07/03 03:54:00;;;;;;;13.07;6.43;;;;;;;13.96;97.98;101712.22;5070582;28;20105;-57
2021/07/03 03:56:29;;;;;;;11.18;6.18;;;;;;;13.99;98.34;101705.97;5069105;28;20052;-55
2021/07/03 03:58:59;;;;;;;9.70;6.18;;;;;;;14.03;98.46;101715.47;5070581;28;20104;-57
2021/07/03 04:01:29;;;;;;;13.90;6.75;;;;;;;14.06;98.36;101706.47;5068662;28;20053;-51
2021/07/03 04:03:57;;;;;;;13.82;7.57;;;;;;;14.10;98.40;101710.34;5070453;28;20032;-56
2021/07/03 04:06:25;;;;;;;8.48;5.95;;;;;;;14.16;98.66;101707.47;5069292;28;20064;-56
2021/07/03 04:08:53;;;;;;;10.68;6.97;;;;;;;14.19;98.64;101704.88;5070264;28;20114;-51
2021/07/03 04:11:22;;;;;;;13.68;7.28;;;;;;;14.23;98.60;101702.28;5073203;28;20461;-52
2021/07/03 04:13:50;;;;;;;11.23;6.38;;;;;;;14.26;98.70;101699.72;5074223;28;20044;-55
2021/07/03 04:16:18;;;;;;;10.38;6.32;;;;;;;14.32;98.64;101700.47;5073458;28;20448;-53
2021/07/03 04:18:46;;;;;;;11.35;6.43;;;;;;;14.36;98.65;101707.16;5074461;28;20044;-55
2021/07/03 04:21:14;;;;;;;13.20;7.60;;;;;;;14.40;98.93;101702.59;5074212;28;20102;-55
2021/07/03 04:23:42;;;;;;;12.57;5.72;;;;;;;14.45;98.77;101702.53;5073424;28;20040;-55
2021/07/03 04:26:09;;;;;;;10.35;6.50;;;;;;;14.48;98.87;101705.59;5074111;28;20056;-53
2021/07/03 04:28:39;;;;;;;9.70;6.78;;;;;;;14.53;98.82;101701.03;5074077;28;20048;-54
2021/07/03 04:31:06;;;;;;;8.80;5.20;;;;;;;14.57;98.96;101700.13;5073227;28;20044;-58
2021/07/03 04:33:34;;;;;;;9.80;5.57;;;;;;;14.62;99.08;101702.00;5074267;28;20484;-53
2021/07/03 04:36:02;;;;;;;13.77;6.28;;;;;;;14.67;99.02;101699.09;5073838;28;20099;-56
2021/07/03 04:38:30;;;;;;;8.52;5.85;;;;;;;14.71;98.99;101701.00;5073424;28;20040;-54
2021/07/03 04:40:58;;;;;;;12.70;7.30;;;;;;;14.74;98.97;101694.78;5070786;28;20131;-57
2021/07/03 04:43:26;;;;;;;8.05;5.63;;;;;;;14.78;98.96;101711.84;5073472;28;20067;-56
2021/07/03 04:45:55;;;;;;;11.85;5.53;;;;;;;14.81;98.99;101712.06;5073828;28;20069;-56
2021/07/03 04:48:23;;;;;;;10.52;5.38;;;;;;;14.83;98.96;101704.16;5072255;28;20255;-58
2021/07/03 04:50:51;;;;;;;9.70;5.57;;;;;;;14.88;98.85;101699.59;5073013;28;20478;-57
2021/07/03 04:53:19;;;;;;;11.75;7.53;;;;;;;14.90;98.84;101698.16;5073482;28;20076;-56
2021/07/03 04:55:48;;;;;;;10.88;6.10;;;;;;;14.93;98.90;101696.69;5073506;28;20048;-55
2021/07/03 04:58:16;;;;;;;11.95;6.68;;;;;;;14.96;98.87;101698.91;5072763;28;20093;-56
2021/07/03 05:00:44;;;;;;;7.78;4.53;;;;;;;14.98;98.93;101697.44;5073715;28;20044;-51
2021/07/03 05:03:14;;;;;;;9.02;5.47;;;;;;;15.01;98.91;101698.78;5072198;28;20182;-56
2021/07/03 05:05:42;;;;;;;9.93;5.93;;;;;;;15.02;98.81;101704.09;5072687;28;20131;-56
2021/07/03 05:08:10;;;;;;;13.23;6.38;;;;;;;15.04;98.90;101703.78;5073495;28;20045;-54
2021/07/03 05:10:38;;;;;;;10.05;6.07;;;;;;;15.05;98.96;101705.47;5073186;28;20508;-55
2021/07/03 05:13:05;;;;;;;9.80;5.78;;;;;;;15.07;99.07;101708.81;5072898;28;20095;-55
2021/07/03 05:15:34;;;;;;;9.05;5.53;;;;;;;15.07;98.83;101703.19;5073209;28;20509;-56
2021/07/03 05:18:02;;;;;;;11.45;5.80;;;;;;;15.09;99.02;101709.34;5073068;28;20086;-58
2021/07/03 05:20:32;;;;;;;13.57;6.63;;;;;;;15.12;98.86;101705.91;5072353;28;20209;-54
2021/07/03 05:23:00;;;;;;;10.43;5.30;;;;;;;15.15;99.04;101708.94;5072718;28;20560;-56
2021/07/03 05:25:28;;;;;;;8.77;5.40;;;;;;;15.21;99.06;101706.84;5072936;28;20078;-57
2021/07/03 05:27:56;;;;;;;7.85;5.05;;;;;;;15.28;99.25;101712.06;5072741;28;20578;-51
2021/07/03 05:30:24;;;;;;;8.93;5.38;;;;;;;15.36;99.27;101709.38;5073377;28;20098;-55
2021/07/03 05:32:52;;;;;;;13.95;7.30;;;;;;;15.46;99.11;101711.16;5072336;28;20057;-52
2021/07/03 05:35:19;;;;;;;12.95;6.63;;;;;;;15.57;99.18;101712.66;5072621;28;20102;-55
2021/07/03 05:37:49;;;;;;;6.50;4.05;;;;;;;15.69;98.90;101714.94;5072567;28;20114;-57
2021/07/03 05:40:17;;;;;;;9.77;5.03;;;;;;;15.81;99.12;101715.25;5072299;28;20075;-56
2021/07/03 05:42:46;;;;;;;9.40;5.20;;;;;;;15.98;99.01;101712.66;5072729;28;20071;-60
2021/07/03 05:45:15;;;;;;;12.93;7.10;;;;;;;16.12;98.86;101707.81;5071755;28;20397;-55
2021/07/03 05:47:49;;;;;;;14.73;7.30;;;;;;;16.25;98.62;101711.75;5071941;28;20456;-52
2021/07/03 05:50:18;;;;;;;13.88;7.50;;;;;;;16.32;98.22;101706.50;5072687;28;20102;-54
2021/07/03 05:52:46;;;;;;;11.93;7.78;;;;;;;16.40;98.20;101693.63;5072516;28;20094;-55
2021/07/03 05:55:17;;;;;;;11.38;6.68;;;;;;;16.50;98.04;101699.88;5071814;28;20143;-55
2021/07/03 05:57:46;;;;;;;13.45;6.82;;;;;;;16.60;98.03;101695.97;5072655;28;20052;-58
2021/07/03 06:00:16;;;;;;;9.43;6.13;;;;;;;16.71;97.92;101697.44;5070995;28;20048;-51
2021/07/03 06:02:44;;;;;;;12.15;7.18;;;;;;;16.81;97.59;101694.34;5063844;28;20076;-52
2021/07/03 06:05:13;;;;;;;11.68;7.10;;;;;;;16.91;97.03;101698.88;5069002;28;20458;-55
2021/07/03 06:07:41;;;;;;;13.82;7.75;;;;;;;16.99;96.47;101697.25;5068445;28;20036;-58
2021/07/03 06:10:10;;;;;;;10.38;6.00;;;;;;;17.04;96.25;101697.13;5066176;28;20071;-53
2021/07/03 06:12:41;;;;;;;21.13;8.27;;;;;;;17.11;95.96;101694.69;5067155;28;20123;-54
2021/07/03 06:15:11;;;;;;;;;;;;;;;17.09;95.89;101692.19;5066250;28;20094;-60
2021/07/03 06:17:39;;;;;;;10.43;5.45;;;;;;;17.17;96.21;101696.22;5066332;28;20373;-58
2021/07/03 06:20:09;;;;;;;12.82;7.20;;;;;;;17.30;95.68;101692.47;5070231;28;20511;-60
2021/07/03 06:22:37;;;;;;;12.93;6.72;;;;;;;17.40;95.17;101685.69;5069953;28;20045;-58
2021/07/03 06:25:07;;;;;;;12.52;7.20;;;;;;;17.47;94.73;101695.38;5069809;28;20032;-58
2021/07/03 06:27:37;;;;;;;13.18;6.53;;;;;;;17.56;94.76;101689.78;5070244;28;20068;-56
2021/07/03 06:30:06;;;;;;;11.02;7.28;;;;;;;17.59;93.84;101686.28;5068827;28;20032;-55
2021/07/03 06:32:34;;;;;;;9.38;6.53;;;;;;;17.63;93.66;101690.13;5069410;28;20528;-55
2021/07/03 06:35:03;;;;;;;14.90;7.63;;;;;;;17.66;93.27;101699.97;5069713;28;20495;-53
2021/07/03 06:37:31;;;;;;;11.25;6.55;;;;;;;17.65;92.58;101701.13;5069259;28;20162;-51
2021/07/03 06:40:00;;;;;;;13.25;6.80;;;;;;;17.66;92.55;101694.31;5068242;28;20707;-54
2021/07/03 06:42:28;;;;;;;16.20;7.40;;;;;;;17.63;92.20;101687.28;5070038;28;20076;-54
2021/07/03 06:44:55;;;;;;;14.50;7.25;;;;;;;17.64;91.89;101691.81;5069307;28;20385;-56
2021/07/03 06:47:24;;;;;;;12.93;7.50;;;;;;;17.66;92.14;101683.84;5070156;28;20036;-58
2021/07/03 06:49:52;;;;;;;14.80;8.38;;;;;;;17.67;91.83;101685.53;5067785;28;20045;-52
2021/07/03 06:52:20;;;;;;;12.77;8.15;;;;;;;17.70;91.63;101686.84;5069432;28;20094;-58
2021/07/03 06:54:48;;;;;;;14.43;7.90;;;;;;;17.72;91.68;101687.38;5069559;28;20568;-56
2021/07/03 06:57:16;;;;;;;13.90;7.28;;;;;;;17.75;91.72;101692.38;5066439;28;20106;-57
2021/07/03 06:59:44;;;;;;;14.23;7.97;;;;;;;17.78;91.18;101686.91;5070031;28;20044;-51
2021/07/03 07:02:12;;;;;;;9.88;6.78;;;;;;;17.82;91.44;101684.22;5068056;28;20036;-56
2021/07/03 07:04:41;;;;;;;15.93;7.18;;;;;;;17.84;91.34;101684.72;5068516;28;20044;-53
2021/07/03 07:07:09;;;;;;;13.07;8.18;;;;;;;17.86;91.09;101683.25;5065595;28;20142;-57
2021/07/03 07:09:37;;;;;;;14.40;7.30;;;;;;;17.88;91.14;101678.09;5069588;28;20558;-58
2021/07/03 07:12:05;;;;;;;15.07;7.15;;;;;;;17.94;91.37;101684.44;5067542;28;20044;-59
2021/07/03 07:14:33;;;;;;;14.50;8.07;;;;;;;18.02;91.22;101692.06;5069822;28;20072;-57
2021/07/03 07:17:01;;;;;;;12.82;7.60;;;;;;;18.11;91.08;101689.28;5069086;28;20048;-57
2021/07/03 07:19:29;;;;;;;16.08;8.57;;;;;;;18.15;90.59;101693.13;5068470;28;20539;-59
2021/07/03 07:21:58;;;;;;;13.52;8.00;;;;;;;18.24;90.76;101694.78;5069092;28;20859;-54
2021/07/03 07:24:26;;;;;;;11.02;7.40;;;;;;;18.42;90.84;101698.44;5069272;28;20045;-57
2021/07/03 07:26:54;;;;;;;15.82;8.45;;;;;;;18.67;90.26;101693.97;5068572;28;20056;-59
2021/07/03 07:29:22;;;;;;;14.63;8.75;;;;;;;18.94;89.25;101695.63;5068580;28;20464;-52
2021/07/03 07:31:50;;;;;;;15.35;9.10;;;;;;;19.22;88.00;101691.22;5069251;28;20049;-57
2021/07/03 07:34:18;;;;;;;16.10;8.88;;;;;;;19.44;86.88;101686.47;5068204;28;20505;-55
2021/07/03 07:36:46;;;;;;;14.77;8.32;;;;;;;19.69;86.51;101677.06;5069433;28;20098;-54
2021/07/03 07:39:15;;;;;;;14.27;8.40;;;;;;;19.85;84.81;101671.66;5068410;28;20075;-58
2021/07/03 07:41:43;;;;;;;14.63;9.32;;;;;;;20.09;84.37;101673.84;5067843;28;20044;-56
2021/07/03 07:44:11;;;;;;;14.15;9.20;;;;;;;20.32;83.55;101675.16;5069981;28;20123;-58
2021/07/03 07:46:38;;;;;;;12.90;8.25;;;;;;;20.48;82.84;101669.72;5070394;28;20125;-58
2021/07/03 07:49:06;;;;;;;13.38;9.13;;;;;;;20.69;82.46;101664.84;5073032;28;20036;-53
2021/07/03 07:51:34;;;;;;;14.73;9.57;;;;;;;20.88;81.16;101665.16;5073569;28;20029;-55
2021/07/03 07:54:04;;;;;;;15.95;11.43;;;;;;;21.01;79.78;101670.88;5072213;28;20147;-53
2021/07/03 07:56:33;;;;;;;15.40;9.68;;;;;;;21.07;79.07;101669.47;5071832;28;20072;-57
2021/07/03 07:59:01;;;;;;;15.43;9.65;;;;;;;21.08;78.43;101665.47;5072509;28;20072;-59
2021/07/03 08:01:29;;;;;;;16.63;10.27;;;;;;;21.19;78.31;101656.13;5072064;28;20102;-57
2021/07/03 08:03:57;;;;;;;16.33;10.18;;;;;;;21.39;77.55;101656.41;5072650;28;20509;-54
2021/07/03 08:06:25;;;;;;;17.17;10.95;;;;;;;21.44;76.64;101653.34;5071771;28;20082;-58
2021/07/03 08:08:53;;;;;;;15.57;10.48;;;;;;;21.51;76.80;101654.44;5072387;28;20102;-57
2021/07/03 08:11:20;;;;;;;16.55;11.07;;;;;;;21.61;75.95;101648.28;5072361;28;20065;-59
2021/07/03 08:13:50;;;;;;;18.83;11.38;;;;;;;21.67;74.98;101641.19;5071155;28;20564;-56
2021/07/03 08:16:19;;;;;;;15.77;10.90;;;;;;;21.71;74.49;101646.16;5071724;28;20052;-59
2021/07/03 08:18:47;;;;;;;15.73;10.55;;;;;;;21.83;74.46;101640.44;5072607;28;20055;-58
2021/07/03 08:21:16;;;;;;;17.42;10.73;;;;;;;21.91;74.20;101645.19;5072182;28;20489;-58
2021/07/03 08:23:45;;;;;;;17.05;11.48;;;;;;;21.96;73.67;101654.31;5072526;28;20044;-58
2021/07/03 08:26:12;;;;;;;14.38;10.00;;;;;;;22.09;73.93;101645.78;5068753;28;20127;-53
2021/07/03 08:28:41;;;;;;;13.10;9.07;;;;;;;22.23;73.56;101644.19;5069087;28;20091;-57
2021/07/03 08:31:10;;;;;;;13.60;9.50;;;;;;;22.42;73.37;101642.72;5070302;28;20044;-58
2021/07/03 08:33:38;;;;;;;18.10;11.60;;;;;;;22.59;72.52;101640.38;5072342;28;20048;-59
2021/07/03 08:36:06;;;;;;;14.73;10.73;;;;;;;22.69;71.65;101639.06;5071360;28;20040;-56
2021/07/03 08:38:34;;;;;;;16.13;11.52;;;;;;;22.66;70.95;101639.78;5070568;28;20405;-59
2021/07/03 08:41:03;;;;;;;17.42;11.73;;;;;;;22.75;71.52;101640.47;5071493;28;20048;-54
2021/07/03 08:43:31;;;;;;;20.42;11.88;;;;;;;22.86;70.61;101637.94;5071719;28;20055;-58
2021/07/03 08:46:00;;;;;;;16.73;10.45;;;;;;;22.95;70.39;101635.75;5070519;28;20143;-55
2021/07/03 08:48:30;;;;;;;19.30;12.85;;;;;;;22.98;69.80;101630.13;5071922;28;20038;-54
2021/07/03 08:50:59;;;;;;;14.07;10.18;;;;;;;23.07;69.43;101632.00;5071268;28;20139;-56
2021/07/03 08:53:27;;;;;;;16.27;11.38;;;;;;;23.13;68.72;101631.38;5070192;28;20517;-57
2021/07/03 08:55:55;;;;;;;16.10;10.98;;;;;;;23.29;68.69;101628.53;5071339;28;20105;-57
2021/07/03 08:58:23;;;;;;;17.63;12.70;;;;;;;23.46;67.59;101631.00;5071127;28;20119;-55
2021/07/03 09:00:51;;;;;;;18.40;12.75;;;;;;;23.59;66.55;101629.72;5071798;28;20401;-58
2021/07/03 09:03:21;;;;;;;16.90;11.57;;;;;;;23.75;65.96;101629.72;5071410;28;20072;-56
2021/07/03 09:05:54;;;;;;;16.10;10.77;;;;;;;23.95;66.15;101628.59;5071132;28;20090;-58
2021/07/03 09:08:24;;;;;;;17.13;12.75;;;;;;;24.18;65.32;101622.97;5071653;28;20048;-60
2021/07/03 09:11:00;;;;;;;16.40;11.48;;;;;;;24.35;63.71;101616.06;5071153;28;20401;-58
2021/07/03 09:13:28;;;;;;;16.70;12.32;;;;;;;24.44;63.06;101621.50;5071510;28;20075;-58
2021/07/03 09:15:57;;;;;;;18.90;14.00;;;;;;;24.32;61.28;101614.78;5071506;28;20451;-53
2021/07/03 09:18:27;;;;;;;17.45;11.75;;;;;;;24.24;62.04;101612.94;5070755;28;20048;-58
2021/07/03 09:20:57;;;;;;;16.17;11.80;;;;;;;24.41;62.13;101613.69;5071619;28;20132;-55
2021/07/03 09:23:27;;;;;;;15.90;12.52;;;;;;;24.44;60.71;101610.94;5071988;28;20119;-55
2021/07/03 09:25:57;;;;;;;17.83;12.10;;;;;;;24.51;60.72;101601.69;5069419;28;20044;-54
2021/07/03 09:28:27;;;;;;;22.45;12.68;;;;;;;24.50;60.25;101605.75;5070907;28;20556;-57
2021/07/03 09:30:57;;;;;;;15.35;10.68;;;;;;;24.38;60.38;101607.53;5067742;28;20176;-55
2021/07/03 09:33:30;;;;;;;15.27;10.90;;;;;;;24.29;60.11;101606.13;5068652;28;20473;-60
2021/07/03 09:36:11;;;;;;;16.33;11.38;;;;;;;24.26;60.20;101596.28;5069829;28;20037;-55
2021/07/03 09:38:49;;;;;;;18.02;13.35;;;;;;;24.31;60.03;101601.72;5067089;28;20517;-56
2021/07/03 09:41:24;;;;;;;16.85;12.02;;;;;;;24.30;59.75;101590.66;5070465;28;20052;-57
2021/07/03 09:44:09;;;;;;;16.73;12.30;;;;;;;24.21;57.83;101602.25;5069248;28;20075;-54
2021/07/03 09:46:55;;;;;;;17.88;13.60;;;;;;;24.11;58.84;101590.63;5067010;28;20048;-55
2021/07/03 09:49:28;;;;;;;18.83;12.65;;;;;;;24.02;60.26;101587.97;5068823;28;20034;-54
2021/07/03 09:52:04;;;;;;;17.05;12.23;;;;;;;24.00;59.72;101593.22;5071105;28;20139;-56
2021/07/03 09:54:34;;;;;;;14.10;10.65;;;;;;;24.05;60.96;101593.75;5070475;28;20048;-55
2021/07/03 09:57:06;;;;;;;;;;;;;;;23.94;58.55;101589.03;5070303;28;20153;-55
2021/07/03 09:59:44;;;;;;;20.17;10.32;;;;;;;24.14;60.00;101590.72;5071087;28;19920;-63
2021/07/03 10:02:16;;;;;;;14.25;10.90;;;;;;;24.25;59.53;101590.97;5067118;28;20052;-53
2021/07/03 10:04:50;;;;;;;12.90;9.77;;;;;;;24.21;58.47;101595.72;5068546;28;20045;-53
2021/07/03 10:07:46;;;;;;;13.52;10.18;;;;;;;24.09;56.56;101598.72;5069827;28;20032;-58
2021/07/03 10:10:43;;;;;;;16.80;10.27;;;;;;;23.80;58.17;101598.06;5067608;28;20452;-58
2021/07/03 10:13:23;;;;;;;15.65;11.18;;;;;;;23.72;58.35;101604.00;5066857;28;20132;-58
2021/07/03 10:16:13;;;;;;;17.73;11.70;;;;;;;23.56;57.82;101593.44;5068545;28;20051;-57
2021/07/03 10:19:07;;;;;;;16.17;11.53;;;;;;;23.43;58.95;101603.25;5066538;28;20520;-51
2021/07/03 10:21:46;;;;;;;14.55;11.05;;;;;;;23.41;60.20;101584.88;5065646;28;20131;-57
2021/07/03 10:24:25;;;;;;;14.20;9.95;;;;;;;23.47;60.02;101592.78;5070309;28;20056;-57
2021/07/03 10:26:56;;;;;;;18.45;10.80;;;;;;;23.59;60.58;101586.16;5070467;28;20052;-56
2021/07/03 10:29:25;;;;;;;18.27;11.95;;;;;;;23.69;60.53;101586.44;5069338;28;20071;-52
2021/07/03 10:31:54;;;;;;;16.67;11.85;;;;;;;23.79;59.69;101587.03;5070252;28;20075;-54
2021/07/03 10:34:29;;;;;;;20.27;13.38;;;;;;;23.78;58.78;101585.41;5069912;28;20551;-53
2021/07/03 10:37:10;;;;;;;15.75;11.52;;;;;;;23.72;59.86;101579.16;5065551;28;20044;-54
2021/07/03 10:39:39;;;;;;;12.30;9.93;;;;;;;23.73;59.54;101580.81;5069554;28;20080;-58
2021/07/03 10:42:07;;;;;;;13.38;10.35;;;;;;;23.79;59.23;101573.59;5069191;28;20075;-57
2021/07/03 10:44:40;;;;;;;17.05;11.27;;;;;;;23.85;59.91;101568.44;5069797;28;20136;-57
2021/07/03 10:47:09;;;;;;;19.08;12.98;;;;;;;23.91;61.26;101564.94;5069302;28;20517;-58
2021/07/03 10:49:38;;;;;;;20.95;14.45;;;;;;;23.93;61.88;101565.41;5069372;28;20041;-56
2021/07/03 10:52:13;;;;;;;20.77;14.88;;;;;;;23.85;62.24;101565.59;5067592;28;20497;-58
2021/07/03 10:54:43;;;;;;;19.75;14.20;;;;;;;23.70;62.45;101573.84;5066028;28;20455;-58
2021/07/03 10:57:11;;;;;;;19.45;14.68;;;;;;;23.59;63.30;101572.72;5065149;28;20123;-55
2021/07/03 10:59:41;;;;;;;19.77;14.60;;;;;;;23.44;63.74;101567.88;5065199;28;20063;-56
2021/07/03 11:02:11;;;;;;;18.45;13.60;;;;;;;23.38;64.15;101578.72;5063862;28;20044;-58
2021/07/03 11:04:50;;;;;;;22.85;15.93;;;;;;;23.31;63.86;101569.19;5064748;28;20068;-54
2021/07/03 11:07:20;;;;;;;21.33;14.77;;;;;;;23.29;65.01;101571.56;5066415;28;20171;-56
2021/07/03 11:09:49;;;;;;;19.75;14.63;;;;;;;23.26;64.99;101575.16;5069593;28;20075;-59
2021/07/03 11:12:19;;;;;;;20.85;14.82;;;;;;;23.21;65.23;101579.09;5068853;28;20488;-56
2021/07/03 11:14:51;;;;;;;20.75;13.77;;;;;;;23.14;64.90;101567.53;5068973;28;20072;-56
2021/07/03 11:17:20;;;;;;;21.40;15.43;;;;;;;23.13;65.04;101573.59;5068548;28;20052;-59
2021/07/03 11:19:50;;;;;;;24.50;15.50;;;;;;;23.12;65.52;101571.94;5068730;28;20524;-56
2021/07/03 11:22:22;;;;;;;22.92;15.70;;;;;;;23.19;65.84;101560.72;5069235;28;20337;-56
2021/07/03 11:24:53;;;;;;;19.48;14.05;;;;;;;23.28;65.52;101547.13;5067963;28;20036;-57
2021/07/03 11:27:29;;;;;;;19.35;13.88;;;;;;;23.34;65.26;101557.06;5069045;28;20429;-59
2021/07/03 11:30:07;;;;;;;21.07;14.17;;;;;;;23.41;65.46;101547.84;5066172;28;20060;-58